createdAt,value
2022-08-02T00:00:30.405Z,19.50
2022-08-02T00:02:58.462Z,19.60
2022-08-02T00:05:26.700Z,19.60
2022-08-02T00:07:54.780Z,19.60
2022-08-02T00:10:22.847Z,19.50
2022-08-02T00:12:51.001Z,19.40
2022-08-02T00:15:22.726Z,19.50
2022-08-02T00:17:50.824Z,19.40
2022-08-02T00:20:18.916Z,19.20
2022-08-02T00:22:47.000Z,19.20
2022-08-02T00:25:15.032Z,19.10
2022-08-02T00:27:43.139Z,19.10
2022-08-02T00:30:12.125Z,19.20
2022-08-02T00:32:41.582Z,19.30
2022-08-02T00:35:10.505Z,19.30
2022-08-02T00:37:41.007Z,19.40
2022-08-02T00:40:10.630Z,19.40
2022-08-02T00:42:39.588Z,19.40
2022-08-02T00:45:08.887Z,19.40
2022-08-02T00:47:36.937Z,19.10
2022-08-02T00:50:07.289Z,19.10
2022-08-02T00:52:35.396Z,19.20
2022-08-02T00:55:03.577Z,19.20
2022-08-02T00:57:31.631Z,19.20
2022-08-02T00:59:59.690Z,19.10
2022-08-02T01:02:27.783Z,19.00
2022-08-02T01:04:55.853Z,19.00
2022-08-02T01:07:25.318Z,19.00
2022-08-02T01:09:53.517Z,19.00
2022-08-02T01:12:21.829Z,19.00
2022-08-02T01:14:52.082Z,19.00
2022-08-02T01:17:27.006Z,19.10
2022-08-02T01:20:01.469Z,19.20
2022-08-02T01:23:03.575Z,19.20
2022-08-02T01:25:51.580Z,19.20
2022-08-02T01:28:38.969Z,19.30
2022-08-02T01:31:17.650Z,19.30
2022-08-02T01:33:49.764Z,19.20
2022-08-02T01:36:20.224Z,19.20
2022-08-02T01:38:50.733Z,19.00
2022-08-02T01:41:22.496Z,19.00
2022-08-02T01:43:56.688Z,18.80
2022-08-02T01:46:26.557Z,18.70
2022-08-02T01:48:57.386Z,18.70
2022-08-02T01:51:42.121Z,18.90
2022-08-02T01:54:12.988Z,18.90
2022-08-02T01:56:42.986Z,18.90
2022-08-02T01:59:15.397Z,18.90
2022-08-02T02:01:45.053Z,18.70
2022-08-02T02:04:14.615Z,18.50
2022-08-02T02:06:44.437Z,18.40
2022-08-02T02:09:13.640Z,18.30
2022-08-02T02:12:09.478Z,18.20
2022-08-02T02:14:35.979Z,18.30
2022-08-02T02:17:05.730Z,18.30
2022-08-02T02:19:37.057Z,18.20
2022-08-02T02:22:05.320Z,18.20
2022-08-02T02:24:36.004Z,18.30
2022-08-02T02:27:08.916Z,18.40
2022-08-02T02:29:44.952Z,18.40
2022-08-02T02:32:15.222Z,18.40
2022-08-02T02:34:46.487Z,18.40
2022-08-02T02:37:18.756Z,18.30
2022-08-02T02:39:48.476Z,18.30
2022-08-02T02:42:18.720Z,18.30
2022-08-02T02:44:49.599Z,18.30
2022-08-02T02:47:20.063Z,18.30
2022-08-02T02:49:49.317Z,18.20
2022-08-02T02:52:19.173Z,18.20
2022-08-02T02:54:49.876Z,18.10
2022-08-02T02:57:19.622Z,17.90
2022-08-02T02:59:49.993Z,17.80
2022-08-02T03:02:19.397Z,17.80
2022-08-02T03:04:56.173Z,17.90
2022-08-02T03:07:26.297Z,17.50
2022-08-02T03:09:55.237Z,17.40
2022-08-02T03:12:30.917Z,17.30
2022-08-02T03:15:04.062Z,17.10
2022-08-02T03:17:43.406Z,17.00
2022-08-02T03:20:13.421Z,17.00
2022-08-02T03:22:42.020Z,17.00
2022-08-02T03:25:11.485Z,17.00
2022-08-02T03:27:39.957Z,17.20
2022-08-02T03:30:12.654Z,17.30
2022-08-02T03:32:42.384Z,17.30
2022-08-02T03:35:13.143Z,17.40
2022-08-02T03:37:42.747Z,17.30
2022-08-02T03:40:13.646Z,17.20
2022-08-02T03:42:42.858Z,17.20
2022-08-02T03:45:14.788Z,17.20
2022-08-02T03:47:43.589Z,17.20
2022-08-02T03:50:13.505Z,17.30
2022-08-02T03:52:43.651Z,17.40
2022-08-02T03:55:12.731Z,17.50
2022-08-02T03:57:41.832Z,17.50
2022-08-02T04:00:14.398Z,17.20
2022-08-02T04:02:42.604Z,17.10
2022-08-02T04:05:10.875Z,17.10
2022-08-02T04:08:33.081Z,17.10
2022-08-02T04:10:27.232Z,17.10
2022-08-02T04:12:56.298Z,17.20
2022-08-02T04:15:26.346Z,17.20
2022-08-02T04:17:57.720Z,17.20
2022-08-02T04:20:29.473Z,17.20
2022-08-02T04:23:02.624Z,17.30
2022-08-02T04:25:34.459Z,17.30
2022-08-02T04:28:17.643Z,17.40
2022-08-02T04:30:49.275Z,17.40
2022-08-02T04:33:18.056Z,17.70
2022-08-02T04:35:46.397Z,17.60
2022-08-02T04:38:15.826Z,17.70
2022-08-02T04:40:52.372Z,17.90
2022-08-02T04:43:20.941Z,17.80
2022-08-02T04:45:52.596Z,17.90
2022-08-02T04:48:21.233Z,17.90
2022-08-02T04:50:49.762Z,18.00
2022-08-02T04:53:18.107Z,18.10
2022-08-02T04:55:46.392Z,18.10
2022-08-02T04:58:38.842Z,18.20
2022-08-02T05:01:04.055Z,18.20
2022-08-02T05:03:32.292Z,18.30
2022-08-02T05:06:00.737Z,18.40
2022-08-02T05:08:28.833Z,18.40
2022-08-02T05:10:56.859Z,18.50
2022-08-02T05:13:25.752Z,18.70
2022-08-02T05:15:53.802Z,18.80
2022-08-02T05:18:23.241Z,18.80
2022-08-02T05:20:54.049Z,18.90
2022-08-02T05:23:26.005Z,19.00
2022-08-02T05:25:54.160Z,19.00
2022-08-02T05:28:22.171Z,19.20
2022-08-02T05:30:50.434Z,19.20
2022-08-02T05:33:18.982Z,19.30
2022-08-02T05:35:48.445Z,19.40
2022-08-02T05:38:16.528Z,19.50
2022-08-02T05:40:54.510Z,19.70
2022-08-02T05:43:24.364Z,19.70
2022-08-02T05:45:54.564Z,19.80
2022-08-02T05:48:27.643Z,19.90
2022-08-02T05:51:05.512Z,20.00
2022-08-02T05:53:39.988Z,20.00
2022-08-02T05:56:18.552Z,20.20
2022-08-02T05:58:54.053Z,20.40
2022-08-02T06:01:29.458Z,20.40
2022-08-02T06:04:00.580Z,20.40
2022-08-02T06:06:33.041Z,20.70
2022-08-02T06:09:04.131Z,20.80
2022-08-02T06:11:37.223Z,20.80
2022-08-02T06:14:06.668Z,20.90
2022-08-02T06:16:37.652Z,21.10
2022-08-02T06:19:12.759Z,21.20
2022-08-02T06:22:34.964Z,21.20
2022-08-02T06:24:33.763Z,21.30
2022-08-02T06:27:03.173Z,21.50
2022-08-02T06:29:38.372Z,21.60
2022-08-02T06:32:08.981Z,21.80
2022-08-02T06:34:39.252Z,21.90
2022-08-02T06:37:15.590Z,22.10
2022-08-02T06:39:46.823Z,22.20
2022-08-02T06:42:27.032Z,22.40
2022-08-02T06:44:57.931Z,22.50
2022-08-02T06:47:26.548Z,22.50
2022-08-02T06:49:55.094Z,22.50
2022-08-02T06:52:30.144Z,22.60
2022-08-02T06:54:59.523Z,22.60
2022-08-02T06:57:27.685Z,22.60
2022-08-02T06:59:55.933Z,22.50
2022-08-02T07:02:24.185Z,22.60
2022-08-02T07:04:52.408Z,22.70
2022-08-02T07:07:20.571Z,22.90
2022-08-02T07:10:00.275Z,22.80
2022-08-02T07:12:30.838Z,22.90
2022-08-02T07:14:59.656Z,22.90
2022-08-02T07:17:27.822Z,22.90
2022-08-02T07:19:56.021Z,22.90
2022-08-02T07:22:24.677Z,22.90
2022-08-02T07:24:55.246Z,23.00
2022-08-02T07:27:23.421Z,22.90
2022-08-02T07:29:51.721Z,22.90
2022-08-02T07:32:20.930Z,23.10
2022-08-02T07:34:52.585Z,23.00
2022-08-02T07:37:53.079Z,23.20
2022-08-02T07:40:15.307Z,23.30
2022-08-02T07:42:49.818Z,23.40
2022-08-02T07:45:17.924Z,23.40
2022-08-02T07:47:46.531Z,23.50
2022-08-02T07:50:16.193Z,23.40
2022-08-02T07:52:45.726Z,23.40
2022-08-02T07:55:16.377Z,23.40
2022-08-02T07:57:46.816Z,23.40
2022-08-02T08:00:17.286Z,23.50
2022-08-02T08:02:46.512Z,23.60
2022-08-02T08:05:15.474Z,23.50
2022-08-02T08:07:43.549Z,23.50
2022-08-02T08:10:12.024Z,23.60
2022-08-02T08:12:41.443Z,23.80
2022-08-02T08:15:10.483Z,23.80
2022-08-02T08:17:38.921Z,24.00
2022-08-02T08:20:08.852Z,24.10
2022-08-02T08:22:38.144Z,24.00
2022-08-02T08:25:07.097Z,23.90
2022-08-02T08:27:35.215Z,23.80
2022-08-02T08:30:05.733Z,23.80
2022-08-02T08:32:33.871Z,23.80
2022-08-02T08:35:03.683Z,23.90
2022-08-02T08:37:35.463Z,23.90
2022-08-02T08:40:04.985Z,24.00
2022-08-02T08:42:33.877Z,23.90
2022-08-02T08:45:02.029Z,23.70
2022-08-02T08:47:37.546Z,23.80
2022-08-02T08:50:08.285Z,24.00
2022-08-02T08:52:42.765Z,24.00
2022-08-02T08:55:12.861Z,24.10
2022-08-02T08:57:43.165Z,24.10
2022-08-02T09:00:13.993Z,24.20
2022-08-02T09:02:44.805Z,24.30
2022-08-02T09:05:15.656Z,24.30
2022-08-02T09:07:45.176Z,24.10
2022-08-02T09:10:36.145Z,24.30
2022-08-02T09:13:31.208Z,24.40
2022-08-02T09:16:12.023Z,24.20
2022-08-02T09:18:46.088Z,24.30
2022-08-02T09:21:16.224Z,24.30
2022-08-02T09:23:46.934Z,24.50
2022-08-02T09:26:16.281Z,24.50
2022-08-02T09:28:46.476Z,24.50
2022-08-02T09:31:16.117Z,24.60
2022-08-02T09:33:51.395Z,24.60
2022-08-02T09:36:19.511Z,24.60
2022-08-02T09:38:55.794Z,24.80
2022-08-02T09:41:24.920Z,24.90
2022-08-02T09:44:05.184Z,24.90
2022-08-02T09:46:38.470Z,24.90
2022-08-02T09:49:10.471Z,24.90
2022-08-02T09:51:40.632Z,24.90
2022-08-02T09:54:11.842Z,24.90
2022-08-02T09:56:49.569Z,24.90
2022-08-02T09:59:19.133Z,25.00
2022-08-02T10:01:51.658Z,24.70
2022-08-02T10:04:31.644Z,24.90
2022-08-02T10:07:04.162Z,25.10
2022-08-02T10:09:33.413Z,25.40
2022-08-02T10:12:03.508Z,25.40
2022-08-02T10:14:35.209Z,25.30
2022-08-02T10:17:05.129Z,25.50
2022-08-02T10:20:00.507Z,25.40
2022-08-02T10:22:25.459Z,25.20
2022-08-02T10:24:54.802Z,25.00
2022-08-02T10:27:25.176Z,25.20
2022-08-02T10:29:56.022Z,25.20
2022-08-02T10:32:29.715Z,25.30
2022-08-02T10:35:02.722Z,25.50
2022-08-02T10:37:51.844Z,25.40
2022-08-02T10:40:26.911Z,25.10
2022-08-02T10:42:59.345Z,25.40
2022-08-02T10:45:29.386Z,25.40
2022-08-02T10:48:06.177Z,25.40
2022-08-02T10:51:05.651Z,25.70
2022-08-02T10:53:34.723Z,25.20
2022-08-02T10:56:05.902Z,25.50
2022-08-02T10:58:37.440Z,25.20
2022-08-02T11:01:06.989Z,25.30
2022-08-02T11:03:42.882Z,25.30
2022-08-02T11:06:25.720Z,25.10
2022-08-02T11:09:32.276Z,25.60
2022-08-02T11:12:04.079Z,25.50
2022-08-02T11:14:33.688Z,25.70
2022-08-02T11:17:10.220Z,25.50
2022-08-02T11:20:19.239Z,25.70
2022-08-02T11:22:50.868Z,26.00
2022-08-02T11:26:02.122Z,26.20
2022-08-02T11:28:25.239Z,26.30
2022-08-02T11:31:02.758Z,26.50
2022-08-02T11:33:36.065Z,26.50
2022-08-02T11:36:06.653Z,26.50
2022-08-02T11:38:36.581Z,26.40
2022-08-02T11:41:05.962Z,25.80
2022-08-02T11:43:38.479Z,25.90
2022-08-02T11:46:13.256Z,26.30
2022-08-02T11:48:42.474Z,26.40
2022-08-02T11:51:14.588Z,26.60
2022-08-02T11:53:45.995Z,26.80
2022-08-02T11:56:22.353Z,26.90
2022-08-02T11:59:03.844Z,26.90
2022-08-02T12:01:36.753Z,27.10
2022-08-02T12:04:19.285Z,27.20
2022-08-02T12:06:56.866Z,27.30
2022-08-02T12:09:27.924Z,27.50
2022-08-02T12:11:57.810Z,27.70
2022-08-02T12:14:27.864Z,27.70
2022-08-02T12:17:14.348Z,27.80
2022-08-02T12:19:43.491Z,28.10
2022-08-02T12:22:14.961Z,27.80
2022-08-02T12:24:48.218Z,27.90
2022-08-02T12:27:36.813Z,28.20
2022-08-02T12:30:08.439Z,28.10
2022-08-02T12:32:36.966Z,28.00
2022-08-02T12:35:26.414Z,27.80
2022-08-02T12:37:55.284Z,27.60
2022-08-02T12:40:27.043Z,27.50
2022-08-02T12:42:58.476Z,27.80
2022-08-02T12:45:36.501Z,28.10
2022-08-02T12:48:08.264Z,28.40
2022-08-02T12:50:37.908Z,29.10
2022-08-02T12:53:08.200Z,29.40
2022-08-02T12:55:59.957Z,29.40
2022-08-02T12:58:29.567Z,29.80
2022-08-02T13:00:59.823Z,30.00
2022-08-02T13:04:09.108Z,30.40
2022-08-02T13:06:42.275Z,29.60
2022-08-02T13:09:13.524Z,29.50
2022-08-02T13:11:44.349Z,29.50
2022-08-02T13:14:13.219Z,29.60
2022-08-02T13:16:41.680Z,29.60
2022-08-02T13:19:09.763Z,29.60
2022-08-02T13:21:40.770Z,29.50
2022-08-02T13:24:38.651Z,30.10
2022-08-02T13:27:10.004Z,30.70
2022-08-02T13:29:38.420Z,30.50
2022-08-02T13:32:06.857Z,30.50
2022-08-02T13:34:34.922Z,30.70
2022-08-02T13:37:03.026Z,30.80
2022-08-02T13:39:31.197Z,30.10
2022-08-02T13:41:59.296Z,29.80
2022-08-02T13:44:28.752Z,29.40
2022-08-02T13:46:56.832Z,29.50
2022-08-02T13:49:51.349Z,29.70
2022-08-02T13:52:13.658Z,29.50
2022-08-02T13:54:41.936Z,29.40
2022-08-02T13:57:09.966Z,29.40
2022-08-02T13:59:57.375Z,29.20
2022-08-02T14:02:28.192Z,29.50
2022-08-02T14:04:56.585Z,29.60
2022-08-02T14:07:24.713Z,29.40
2022-08-02T14:09:52.832Z,29.40
2022-08-02T14:12:20.939Z,29.10
2022-08-02T14:14:50.543Z,29.20
2022-08-02T14:17:19.231Z,29.00
2022-08-02T14:19:47.343Z,29.30
2022-08-02T14:22:15.394Z,30.10
2022-08-02T14:24:43.646Z,30.60
2022-08-02T14:27:11.720Z,30.50
2022-08-02T14:29:39.821Z,30.60
2022-08-02T14:32:10.159Z,31.00
2022-08-02T14:34:38.516Z,31.50
2022-08-02T14:37:06.584Z,31.80
2022-08-02T14:39:42.852Z,32.10
2022-08-02T14:42:22.702Z,30.50
2022-08-02T14:44:50.722Z,30.50
2022-08-02T14:47:20.163Z,30.60
2022-08-02T14:49:50.270Z,31.40
2022-08-02T14:52:19.116Z,31.90
2022-08-02T14:54:47.355Z,32.50
2022-08-02T14:57:15.617Z,33.00
2022-08-02T14:59:43.809Z,33.30
2022-08-02T15:02:13.731Z,33.80
2022-08-02T15:04:44.030Z,33.80
2022-08-02T15:07:13.913Z,34.00
2022-08-02T15:09:42.184Z,34.10
2022-08-02T15:12:11.905Z,34.00
2022-08-02T15:14:40.675Z,34.10
2022-08-02T15:17:09.486Z,34.30
2022-08-02T15:19:56.142Z,34.40
2022-08-02T15:22:26.665Z,34.30
2022-08-02T15:24:54.728Z,33.10
2022-08-02T15:27:22.807Z,32.00
2022-08-02T15:29:51.095Z,32.00
2022-08-02T15:32:19.910Z,32.10
2022-08-02T15:34:48.330Z,32.50
2022-08-02T15:37:16.729Z,32.70
2022-08-02T15:39:46.463Z,33.40
2022-08-02T15:42:15.007Z,33.90
2022-08-02T15:44:44.973Z,33.70
2022-08-02T15:47:13.440Z,32.40
2022-08-02T15:49:41.943Z,32.50
2022-08-02T15:52:11.232Z,33.10
2022-08-02T15:54:39.671Z,33.00
2022-08-02T15:57:09.187Z,32.70
2022-08-02T15:59:37.268Z,33.10
2022-08-02T16:02:07.022Z,33.60
2022-08-02T16:04:35.167Z,34.10
2022-08-02T16:07:03.304Z,33.80
2022-08-02T16:09:31.370Z,33.90
2022-08-02T16:11:59.424Z,33.30
2022-08-02T16:14:29.546Z,33.10
2022-08-02T16:16:57.607Z,32.30
2022-08-02T16:19:45.873Z,32.20
2022-08-02T16:22:14.064Z,32.80
2022-08-02T16:24:42.414Z,33.10
2022-08-02T16:27:10.480Z,32.40
2022-08-02T16:29:39.921Z,32.90
2022-08-02T16:32:08.128Z,33.50
2022-08-02T16:35:04.034Z,33.10
2022-08-02T16:37:24.347Z,33.70
2022-08-02T16:39:52.490Z,33.60
2022-08-02T16:42:25.379Z,32.20
2022-08-02T16:44:55.205Z,32.00
2022-08-02T16:47:36.968Z,31.20
2022-08-02T16:50:11.746Z,31.30
2022-08-02T16:52:41.297Z,30.70
2022-08-02T16:55:11.278Z,30.80
2022-08-02T16:57:43.297Z,30.70
2022-08-02T17:00:16.314Z,30.90
2022-08-02T17:02:44.540Z,31.00
2022-08-02T17:05:15.550Z,31.30
2022-08-02T17:08:15.289Z,31.30
2022-08-02T17:10:34.398Z,31.40
2022-08-02T17:13:11.479Z,31.40
2022-08-02T17:16:08.100Z,31.40
2022-08-02T17:18:30.214Z,31.40
2022-08-02T17:20:58.466Z,31.00
2022-08-02T17:24:04.124Z,30.50
2022-08-02T17:26:14.857Z,29.90
2022-08-02T17:29:14.351Z,29.80
2022-08-02T17:31:42.991Z,29.20
2022-08-02T17:34:12.907Z,28.40
2022-08-02T17:36:44.703Z,27.80
2022-08-02T17:39:17.917Z,27.70
2022-08-02T17:41:49.076Z,27.50
2022-08-02T17:44:36.857Z,27.60
2022-08-02T17:47:11.434Z,27.20
2022-08-02T17:49:47.786Z,26.80
2022-08-02T17:52:51.597Z,26.50
2022-08-02T17:55:05.566Z,26.20
2022-08-02T17:57:56.929Z,26.00
2022-08-02T18:00:22.042Z,25.90
2022-08-02T18:02:55.036Z,25.80
2022-08-02T18:05:36.248Z,25.70
2022-08-02T18:08:08.696Z,25.30
2022-08-02T18:10:37.122Z,25.10
2022-08-02T18:13:05.352Z,25.00
2022-08-02T18:15:33.531Z,24.90
2022-08-02T18:18:02.946Z,24.90
2022-08-02T18:20:31.012Z,24.70
2022-08-02T18:22:59.247Z,24.50
2022-08-02T18:25:37.508Z,24.40
2022-08-02T18:28:14.112Z,24.40
2022-08-02T18:30:42.180Z,24.30
2022-08-02T18:33:59.416Z,24.30
2022-08-02T18:35:59.743Z,24.20
2022-08-02T18:38:30.286Z,24.00
2022-08-02T18:41:02.222Z,24.00
2022-08-02T18:43:32.242Z,24.00
2022-08-02T18:46:15.921Z,23.90
2022-08-02T18:48:47.921Z,23.80
2022-08-02T18:51:18.980Z,23.60
2022-08-02T18:53:51.242Z,23.60
2022-08-02T18:56:39.757Z,23.40
2022-08-02T18:59:08.002Z,23.40
2022-08-02T19:01:46.569Z,23.30
2022-08-02T19:04:26.974Z,23.30
2022-08-02T19:06:55.325Z,23.10
2022-08-02T19:09:23.936Z,23.00
2022-08-02T19:11:51.996Z,23.00
2022-08-02T19:14:27.231Z,23.00
2022-08-02T19:16:56.472Z,22.80
2022-08-02T19:19:28.847Z,22.80
2022-08-02T19:22:17.207Z,22.80
2022-08-02T19:24:46.106Z,22.80
2022-08-02T19:27:15.077Z,22.80
2022-08-02T19:29:51.015Z,22.80
2022-08-02T19:32:42.324Z,22.80
2022-08-02T19:35:19.526Z,22.70
2022-08-02T19:38:09.314Z,22.60
2022-08-02T19:40:38.883Z,22.70
2022-08-02T19:44:23.108Z,22.40
2022-08-02T19:46:01.296Z,22.40
2022-08-02T19:48:30.034Z,22.30
2022-08-02T19:51:01.894Z,22.30
2022-08-02T19:53:47.703Z,22.20
2022-08-02T19:56:20.240Z,22.00
2022-08-02T20:01:42.149Z,21.60
2022-08-02T20:04:14.022Z,21.50
2022-08-02T20:06:46.188Z,21.40
2022-08-02T20:09:17.157Z,21.30
2022-08-02T20:11:54.870Z,21.00
2022-08-02T20:14:26.900Z,21.00
2022-08-02T20:16:55.601Z,21.10
2022-08-02T20:19:25.008Z,21.20
2022-08-02T20:21:59.912Z,21.30
2022-08-02T20:24:29.502Z,21.30
2022-08-02T20:26:59.314Z,21.30
2022-08-02T20:29:43.245Z,21.30
2022-08-02T20:32:22.606Z,21.30
2022-08-02T20:34:51.043Z,21.40
2022-08-02T20:38:00.674Z,21.30
2022-08-02T20:40:16.977Z,21.30
2022-08-02T20:42:45.726Z,21.10
2022-08-02T20:45:16.260Z,21.10
2022-08-02T20:47:45.779Z,21.10
2022-08-02T20:50:32.552Z,21.00
2022-08-02T20:53:02.018Z,20.80
2022-08-02T20:55:31.965Z,20.80
2022-08-02T20:58:02.215Z,20.70
2022-08-02T21:00:31.897Z,20.90
2022-08-02T21:03:00.202Z,20.60
2022-08-02T21:05:43.711Z,20.40
2022-08-02T21:08:21.265Z,20.30
2022-08-02T21:10:51.835Z,20.20
2022-08-02T21:13:24.191Z,20.20
2022-08-02T21:15:54.992Z,20.30
2022-08-02T21:18:35.900Z,20.30
2022-08-02T21:21:09.217Z,20.60
2022-08-02T21:23:48.288Z,20.60
2022-08-02T21:26:25.735Z,20.50
2022-08-02T21:28:56.679Z,20.60
2022-08-02T21:31:29.819Z,20.60
2022-08-02T21:34:00.749Z,20.70
2022-08-02T21:36:30.793Z,20.50
2022-08-02T21:41:50.454Z,20.60
2022-08-02T21:44:19.890Z,20.60
2022-08-02T21:46:49.254Z,20.60
2022-08-02T21:49:18.366Z,20.60
2022-08-02T21:51:49.652Z,20.60
2022-08-02T21:54:21.201Z,20.50
2022-08-02T21:56:52.323Z,20.10
2022-08-02T21:59:25.222Z,19.80
2022-08-02T22:01:56.695Z,19.70
2022-08-02T22:04:25.864Z,19.60
2022-08-02T22:06:55.182Z,19.80
2022-08-02T22:09:43.543Z,19.90
2022-08-02T22:12:17.590Z,20.00
2022-08-02T22:15:03.817Z,20.00
2022-08-02T22:17:51.517Z,20.00
2022-08-02T22:20:21.282Z,19.70
2022-08-02T22:22:50.366Z,19.50
2022-08-02T22:25:26.465Z,19.50
2022-08-02T22:28:35.861Z,19.50
2022-08-02T22:30:53.657Z,19.70
2022-08-02T22:33:46.892Z,19.80
2022-08-02T22:36:28.437Z,19.90
2022-08-02T22:38:56.972Z,19.70
2022-08-02T22:42:01.344Z,19.80
2022-08-02T22:44:14.811Z,19.90
2022-08-02T22:46:45.091Z,19.90
2022-08-02T22:49:17.632Z,19.80
2022-08-02T22:52:02.173Z,19.70
2022-08-02T22:54:30.346Z,19.50
2022-08-02T22:57:01.456Z,19.10
2022-08-02T22:59:07.626Z,21.80
2022-08-02T22:59:38.907Z,19.20
2022-08-02T23:02:08.316Z,19.20
2022-08-02T23:04:36.646Z,18.90
2022-08-02T23:07:04.947Z,18.80
2022-08-02T23:09:33.062Z,18.70
2022-08-02T23:12:02.489Z,18.70
2022-08-02T23:14:30.590Z,18.80
2022-08-02T23:17:16.201Z,18.90
2022-08-02T23:19:53.229Z,18.80
2022-08-02T23:22:29.537Z,18.80
2022-08-02T23:25:00.917Z,18.90
2022-08-02T23:27:30.392Z,19.00
2022-08-02T23:29:59.215Z,19.30
2022-08-02T23:32:27.435Z,19.30
2022-08-02T23:34:55.643Z,19.50
2022-08-02T23:37:24.085Z,19.60
2022-08-02T23:39:52.415Z,19.30
2022-08-02T23:42:20.514Z,19.40
2022-08-02T23:44:49.946Z,19.40
2022-08-02T23:47:18.009Z,19.50
2022-08-02T23:49:46.250Z,19.30
2022-08-02T23:52:14.797Z,19.30
2022-08-02T23:54:42.986Z,19.50
2022-08-02T23:57:20.865Z,19.30
2022-08-02T23:59:51.767Z,19.30
